^^
Meteo Knjazevac Station Historical Data
Daily Summary for August 15, 2021 Units:  Both    English   Metric
Daily Weekly Monthly Yearly Custom
  High: Low: Average:
Temperature: 66.9 °F /  19.4 °C 58.4 °F /  14.7 °C 61.3 °F /  16.3 °C
Dew Point: 57.6 °F /  14.2 °C 54 °F /  12.2 °C 55.4 °F /  13 °C
Humidity: 86% 72% 81%
Wind Speed: 5mph /  8km/h - 1.5mph /  2.4km/h
Wind Gust: 6mph /  9.7km/h - -
Wind- - West
Pressure: 30.16 in /  1021.2 hPa 30.14 in /  1020.5 hPa -
Precipitation: 0.00 in /  0 mm    
Historical Graphs
 
 
Tabular Data for August 15, 2021
Time Temperature Dew Point Pressure Wind Wind Speed Wind Gust Humidity Rainfall Rate (Hourly) solar Conditions
00:00 66.9 °F /  19.4 °C 57.6 °F /  14.2 °C 30.16in /  1021.2hPa Calm   2mph /  3.2km/h 72% 0.00in /  0mm 0 W/m2
00:10 66.4 °F /  19.1 °C 57.5 °F /  14.2 °C 30.16in /  1021.2hPa Calm   2mph /  3.2km/h 73% 0.00in /  0mm 0 W/m2
00:20 65.8 °F /  18.8 °C 57.3 °F /  14.1 °C 30.16in /  1021.2hPa West 1mph /  1.6km/h 2mph /  3.2km/h 74% 0.00in /  0mm 0 W/m2
00:30 65.1 °F /  18.4 °C 56.6 °F /  13.7 °C 30.16in /  1021.2hPa Calm   2mph /  3.2km/h 74% 0.00in /  0mm 0 W/m2
00:40 64.9 °F /  18.3 °C 56.8 °F /  13.8 °C 30.16in /  1021.2hPa West 2mph /  3.2km/h 3mph /  4.8km/h 75% 0.00in /  0mm 0 W/m2
00:50 64.8 °F /  18.2 °C 56.6 °F /  13.7 °C 30.15in /  1020.9hPa West 2mph /  3.2km/h 4mph /  6.4km/h 75% 0.00in /  0mm 0 W/m2
01:00 64.6 °F /  18.1 °C 56.5 °F /  13.6 °C 30.15in /  1020.9hPa West 1mph /  1.6km/h 4mph /  6.4km/h 75% 0.00in /  0mm 0 W/m2
01:10 64.4 °F /  18 °C 57 °F /  13.9 °C 30.15in /  1020.9hPa WNW 2mph /  3.2km/h 4mph /  6.4km/h 77% 0.00in /  0mm 0 W/m2
01:20 64.2 °F /  17.9 °C 56.9 °F /  13.8 °C 30.15in /  1020.9hPa WNW 2mph /  3.2km/h 4mph /  6.4km/h 77% 0.00in /  0mm 0 W/m2
01:30 63.9 °F /  17.7 °C 56.5 °F /  13.6 °C 30.15in /  1020.9hPa West 2mph /  3.2km/h 4mph /  6.4km/h 77% 0.00in /  0mm 0 W/m2
01:40 63.5 °F /  17.5 °C 56.2 °F /  13.4 °C 30.15in /  1020.9hPa West 1mph /  1.6km/h 3mph /  4.8km/h 77% 0.00in /  0mm 0 W/m2
01:50 63.1 °F /  17.3 °C 56.2 °F /  13.4 °C 30.15in /  1020.9hPa WSW 2mph /  3.2km/h 4mph /  6.4km/h 78% 0.00in /  0mm 0 W/m2
02:00 62.6 °F /  17 °C 56 °F /  13.3 °C 30.15in /  1020.9hPa West 1mph /  1.6km/h 4mph /  6.4km/h 79% 0.00in /  0mm 0 W/m2
02:10 62.4 °F /  16.9 °C 55.8 °F /  13.2 °C 30.15in /  1020.9hPa West 2mph /  3.2km/h 4mph /  6.4km/h 79% 0.00in /  0mm 0 W/m2
02:20 62.4 °F /  16.9 °C 55.8 °F /  13.2 °C 30.15in /  1020.9hPa West 1mph /  1.6km/h 5mph /  8km/h 79% 0.00in /  0mm 0 W/m2
02:30 62.1 °F /  16.7 °C 55.5 °F /  13.1 °C 30.15in /  1020.9hPa West 2mph /  3.2km/h 4mph /  6.4km/h 79% 0.00in /  0mm 0 W/m2
02:40 61.9 °F /  16.6 °C 55.6 °F /  13.1 °C 30.15in /  1020.9hPa West 2mph /  3.2km/h 4mph /  6.4km/h 80% 0.00in /  0mm 0 W/m2
02:50 61.7 °F /  16.5 °C 55.5 °F /  13.1 °C 30.15in /  1020.9hPa WSW 2mph /  3.2km/h 4mph /  6.4km/h 80% 0.00in /  0mm 0 W/m2
03:00 61.5 °F /  16.4 °C 55.3 °F /  12.9 °C 30.15in /  1020.9hPa West 2mph /  3.2km/h 4mph /  6.4km/h 80% 0.00in /  0mm 0 W/m2
03:10 61.7 °F /  16.5 °C 55.5 °F /  13.1 °C 30.15in /  1020.9hPa West 2mph /  3.2km/h 4mph /  6.4km/h 80% 0.00in /  0mm 0 W/m2
03:20 61.5 °F /  16.4 °C 55.2 °F /  12.9 °C 30.15in /  1020.9hPa WSW 2mph /  3.2km/h 4mph /  6.4km/h 80% 0.00in /  0mm 0 W/m2
03:30 61 °F /  16.1 °C 55.1 °F /  12.8 °C 30.15in /  1020.9hPa WSW 1mph /  1.6km/h 4mph /  6.4km/h 81% 0.00in /  0mm 0 W/m2
03:40 60.4 °F /  15.8 °C 54.6 °F /  12.6 °C 30.14in /  1020.5hPa West 2mph /  3.2km/h 4mph /  6.4km/h 81% 0.00in /  0mm 0 W/m2
03:50 60.4 °F /  15.8 °C 55.3 °F /  12.9 °C 30.14in /  1020.5hPa Calm   3mph /  4.8km/h 83% 0.00in /  0mm 0 W/m2
04:00 60.1 °F /  15.6 °C 54.9 °F /  12.7 °C 30.15in /  1020.9hPa West 2mph /  3.2km/h 3mph /  4.8km/h 83% 0.00in /  0mm 0 W/m2
04:10 59.9 °F /  15.5 °C 54.7 °F /  12.6 °C 30.15in /  1020.9hPa West 1mph /  1.6km/h 3mph /  4.8km/h 83% 0.00in /  0mm 0 W/m2
04:20 59.7 °F /  15.4 °C 54.5 °F /  12.5 °C 30.15in /  1020.9hPa Calm   3mph /  4.8km/h 83% 0.00in /  0mm 0 W/m2
04:30 59.4 °F /  15.2 °C 54.5 °F /  12.5 °C 30.15in /  1020.9hPa West 1mph /  1.6km/h 3mph /  4.8km/h 84% 0.00in /  0mm 0 W/m2
04:40 59.4 °F /  15.2 °C 54.5 °F /  12.5 °C 30.15in /  1020.9hPa West 1mph /  1.6km/h 3mph /  4.8km/h 84% 0.00in /  0mm 0 W/m2
04:50 59.4 °F /  15.2 °C 54.5 °F /  12.5 °C 30.15in /  1020.9hPa WSW 2mph /  3.2km/h 3mph /  4.8km/h 84% 0.00in /  0mm 0 W/m2
05:00 59 °F /  15 °C 54.2 °F /  12.3 °C 30.15in /  1020.9hPa SW 1mph /  1.6km/h 3mph /  4.8km/h 84% 0.00in /  0mm 0 W/m2
05:10 58.8 °F /  14.9 °C 54.3 °F /  12.4 °C 30.15in /  1020.9hPa WSW 1mph /  1.6km/h 3mph /  4.8km/h 85% 0.00in /  0mm 0 W/m2
05:20 58.8 °F /  14.9 °C 54.3 °F /  12.4 °C 30.15in /  1020.9hPa West 1mph /  1.6km/h 3mph /  4.8km/h 85% 0.00in /  0mm 0 W/m2
05:30 58.6 °F /  14.8 °C 54.1 °F /  12.3 °C 30.15in /  1020.9hPa West 1mph /  1.6km/h 3mph /  4.8km/h 85% 0.00in /  0mm 0 W/m2
05:40 58.5 °F /  14.7 °C 54 °F /  12.2 °C 30.15in /  1020.9hPa WSW 1mph /  1.6km/h 5mph /  8km/h 85% 0.00in /  0mm 6 W/m2
05:50 58.5 °F /  14.7 °C 54.3 °F /  12.4 °C 30.15in /  1020.9hPa West 5mph /  8km/h 6mph /  9.7km/h 86% 0.00in /  0mm 12 W/m2
06:00 58.4 °F /  14.7 °C 54.2 °F /  12.3 °C 30.15in /  1020.9hPa West 3mph /  4.8km/h 6mph /  9.7km/h 86% 0.00in /  0mm 21 W/m2
06:10 58.5 °F /  14.7 °C 54.3 °F /  12.4 °C 30.15in /  1020.9hPa West 3mph /  4.8km/h 5mph /  8km/h 86% 0.00in /  0mm 35 W/m2
06:20 58.6 °F /  14.8 °C 54.5 °F /  12.5 °C 30.16in /  1021.2hPa West 3mph /  4.8km/h 5mph /  8km/h 86% 0.00in /  0mm 51 W/m2
06:30 58.7 °F /  14.8 °C 54.5 °F /  12.5 °C 30.16in /  1021.2hPa West 1mph /  1.6km/h 5mph /  8km/h 86% 0.00in /  0mm 71 W/m2
06:40 58.8 °F /  14.9 °C 54.6 °F /  12.6 °C 30.16in /  1021.2hPa WSW 1mph /  1.6km/h 3mph /  4.8km/h 86% 0.00in /  0mm 92 W/m2
06:50 59 °F /  15 °C 54.8 °F /  12.7 °C 30.16in /  1021.2hPa West 1mph /  1.6km/h 3mph /  4.8km/h 86% 0.00in /  0mm 118 W/m2
07:00 59.4 °F /  15.2 °C 55.2 °F /  12.9 °C 30.16in /  1021.2hPa WNW 1mph /  1.6km/h 2mph /  3.2km/h 86% 0.00in /  0mm 145 W/m2
07:10 60.1 °F /  15.6 °C 55.6 °F /  13.1 °C 30.16in /  1021.2hPa WNW 1mph /  1.6km/h 4mph /  6.4km/h 85% 0.00in /  0mm 172 W/m2
Knjazevac, Serbia
Compliments of Weather Underground - 2 mb